createdAt,value
2019-05-10T00:00:23.568Z,13.90
2019-05-10T00:03:12.813Z,13.93
2019-05-10T00:06:01.941Z,15.43
2019-05-10T00:08:47.158Z,15.67
2019-05-10T00:11:24.530Z,15.63
2019-05-10T00:14:13.444Z,16.70
2019-05-10T00:16:45.834Z,16.90
2019-05-10T00:19:16.439Z,16.13
2019-05-10T00:21:47.075Z,15.37
2019-05-10T00:24:17.966Z,15.80
2019-05-10T00:26:51.165Z,16.33
2019-05-10T00:29:21.738Z,16.57
2019-05-10T00:31:52.400Z,17.33
2019-05-10T00:34:25.690Z,17.07
2019-05-10T00:36:58.238Z,16.53
2019-05-10T00:39:28.940Z,15.87
2019-05-10T00:41:59.622Z,15.83
2019-05-10T00:44:31.707Z,14.80
2019-05-10T00:47:04.348Z,14.47
2019-05-10T00:49:35.378Z,13.40
2019-05-10T00:52:05.979Z,13.40
2019-05-10T00:54:38.296Z,13.23
2019-05-10T00:57:09.370Z,12.60
2019-05-10T00:59:40.067Z,11.57
2019-05-10T01:02:10.703Z,12.27
2019-05-10T01:04:41.385Z,12.83
2019-05-10T01:07:12.155Z,11.70
2019-05-10T01:09:42.796Z,12.30
2019-05-10T01:12:13.370Z,11.77
2019-05-10T01:14:43.980Z,11.40
2019-05-10T01:17:15.941Z,11.87
2019-05-10T01:19:46.788Z,13.07
2019-05-10T01:22:17.530Z,12.17
2019-05-10T01:24:48.139Z,12.70
2019-05-10T01:27:18.771Z,13.60
2019-05-10T01:29:49.354Z,12.87
2019-05-10T01:32:21.616Z,13.10
2019-05-10T01:34:53.559Z,12.67
2019-05-10T01:37:24.024Z,14.20
2019-05-10T01:39:55.248Z,13.47
2019-05-10T01:42:27.405Z,14.27
2019-05-10T01:44:58.016Z,14.43
2019-05-10T01:47:30.187Z,15.17
2019-05-10T01:50:00.728Z,14.27
2019-05-10T01:52:31.445Z,14.37
2019-05-10T01:55:08.655Z,15.23
2019-05-10T01:57:42.113Z,16.13
2019-05-10T02:00:14.713Z,15.33
2019-05-10T02:02:45.271Z,15.77
2019-05-10T02:05:17.665Z,14.87
2019-05-10T02:07:48.512Z,15.80
2019-05-10T02:10:19.289Z,16.10
2019-05-10T02:12:50.578Z,16.30
2019-05-10T02:15:22.635Z,17.47
2019-05-10T02:17:56.403Z,18.43
2019-05-10T02:20:27.112Z,17.97
2019-05-10T02:22:57.709Z,20.47
2019-05-10T02:25:28.321Z,18.47
2019-05-10T02:27:58.933Z,19.20
2019-05-10T02:30:32.642Z,20.77
2019-05-10T02:33:04.919Z,19.37
2019-05-10T02:35:38.145Z,19.93
2019-05-10T02:38:08.781Z,20.27
2019-05-10T02:40:39.458Z,20.83
2019-05-10T02:43:10.152Z,19.37
2019-05-10T02:45:42.103Z,20.13
2019-05-10T02:48:12.956Z,18.80
2019-05-10T02:50:43.629Z,18.90
2019-05-10T02:53:14.906Z,19.47
2019-05-10T02:55:45.993Z,20.60
2019-05-10T02:58:16.654Z,21.10
2019-05-10T03:00:52.449Z,20.07
2019-05-10T03:03:26.045Z,31.43
2019-05-10T03:05:57.647Z,36.03
2019-05-10T03:08:31.152Z,35.00
2019-05-10T03:11:01.875Z,30.63
2019-05-10T03:13:34.920Z,27.07
2019-05-10T03:16:06.314Z,24.10
2019-05-10T03:18:38.198Z,22.73
2019-05-10T03:21:10.954Z,21.90
2019-05-10T03:23:41.545Z,21.43
2019-05-10T03:26:12.147Z,20.77
2019-05-10T03:28:46.208Z,19.83
2019-05-10T03:31:21.093Z,18.33
2019-05-10T03:33:56.836Z,19.50
2019-05-10T03:36:24.509Z,17.87
2019-05-10T03:38:55.433Z,16.70
2019-05-10T03:41:26.053Z,17.03
2019-05-10T03:43:56.696Z,16.87
2019-05-10T03:46:27.338Z,15.47
2019-05-10T03:48:57.950Z,15.20
2019-05-10T03:51:28.573Z,14.83
2019-05-10T03:54:01.841Z,14.90
2019-05-10T03:56:33.913Z,14.07
2019-05-10T03:59:04.562Z,14.87
2019-05-10T04:01:35.185Z,14.60
2019-05-10T04:04:09.462Z,14.47
2019-05-10T04:06:39.212Z,15.63
2019-05-10T04:09:09.810Z,17.43
2019-05-10T04:11:40.401Z,19.37
2019-05-10T04:14:11.122Z,17.50
2019-05-10T04:16:43.064Z,17.07
2019-05-10T04:19:13.661Z,16.77
2019-05-10T04:21:44.359Z,15.27
2019-05-10T04:24:15.066Z,14.07
2019-05-10T04:26:45.716Z,12.83
2019-05-10T04:29:16.376Z,13.27
2019-05-10T04:31:47.271Z,13.87
2019-05-10T04:34:17.867Z,13.47
2019-05-10T04:36:48.528Z,13.57
2019-05-10T04:39:19.112Z,13.67
2019-05-10T04:41:49.732Z,13.63
2019-05-10T04:44:20.436Z,14.47
2019-05-10T04:46:52.516Z,14.23
2019-05-10T04:49:23.350Z,13.33
2019-05-10T04:51:57.995Z,13.63
2019-05-10T04:54:28.590Z,12.97
2019-05-10T04:57:01.199Z,13.47
2019-05-10T04:59:31.904Z,13.67
2019-05-10T05:02:02.534Z,14.47
2019-05-10T05:04:34.710Z,14.67
2019-05-10T05:07:05.924Z,14.90
2019-05-10T05:09:39.561Z,14.47
2019-05-10T05:12:13.226Z,15.27
2019-05-10T05:14:47.115Z,15.40
2019-05-10T05:17:17.813Z,14.60
2019-05-10T05:19:49.351Z,15.87
2019-05-10T05:22:21.600Z,14.53
2019-05-10T05:24:55.298Z,15.43
2019-05-10T05:27:25.127Z,14.50
2019-05-10T05:29:55.929Z,15.00
2019-05-10T05:32:26.596Z,14.40
2019-05-10T05:34:57.405Z,13.57
2019-05-10T05:37:28.007Z,13.53
2019-05-10T05:39:58.689Z,14.03
2019-05-10T05:42:34.632Z,12.23
2019-05-10T05:45:08.500Z,14.50
2019-05-10T05:47:42.154Z,12.97
2019-05-10T05:50:12.224Z,11.13
2019-05-10T05:52:47.013Z,10.93
2019-05-10T05:55:22.781Z,10.00
2019-05-10T05:57:59.227Z,9.33
2019-05-10T06:00:31.518Z,8.83
2019-05-10T06:03:03.607Z,8.67
2019-05-10T06:05:38.712Z,8.10
2019-05-10T06:08:22.960Z,7.30
2019-05-10T06:10:56.766Z,8.10
2019-05-10T06:13:23.307Z,7.30
2019-05-10T06:15:54.236Z,7.63
2019-05-10T06:18:24.936Z,7.70
2019-05-10T06:20:55.527Z,7.07
2019-05-10T06:23:28.994Z,6.93
2019-05-10T06:25:58.698Z,7.10
2019-05-10T06:28:57.054Z,6.87
2019-05-10T06:31:02.152Z,6.70
2019-05-10T06:33:34.010Z,5.80
2019-05-10T06:36:05.054Z,5.57
2019-05-10T06:38:35.987Z,5.80
2019-05-10T06:41:10.106Z,5.77
2019-05-10T06:43:39.500Z,6.23
2019-05-10T06:46:10.749Z,6.30
2019-05-10T06:48:41.689Z,6.57
2019-05-10T06:51:12.638Z,6.20
2019-05-10T06:53:52.171Z,5.57
2019-05-10T06:56:15.586Z,12.63
2019-05-10T06:58:46.232Z,5.83
2019-05-10T07:01:16.872Z,5.50
2019-05-10T07:03:47.469Z,5.00
2019-05-10T07:06:18.255Z,5.03
2019-05-10T07:08:51.883Z,4.63
2019-05-10T07:11:21.120Z,3.70
2019-05-10T07:13:53.131Z,3.93
2019-05-10T07:16:26.032Z,3.83
2019-05-10T07:19:00.603Z,3.90
2019-05-10T07:21:29.352Z,3.83
2019-05-10T07:24:00.086Z,3.60
2019-05-10T07:26:30.924Z,3.80
2019-05-10T07:29:01.561Z,3.83
2019-05-10T07:31:32.178Z,4.40
2019-05-10T07:34:02.812Z,4.60
2019-05-10T07:36:33.457Z,4.20
2019-05-10T07:39:08.414Z,4.37
2019-05-10T07:41:38.580Z,4.23
2019-05-10T07:44:10.586Z,4.17
2019-05-10T07:46:47.135Z,3.40
2019-05-10T07:49:23.980Z,4.00
2019-05-10T07:52:02.103Z,4.80
2019-05-10T07:54:29.141Z,3.80
2019-05-10T07:57:02.071Z,3.40
2019-05-10T07:59:49.438Z,2.80
2019-05-10T08:15:50.914Z,2.60
2019-05-10T08:18:25.292Z,2.30
2019-05-10T08:21:01.926Z,2.07
2019-05-10T08:23:30.849Z,2.10
2019-05-10T08:26:04.458Z,2.30
2019-05-10T08:28:37.360Z,2.40
2019-05-10T08:31:06.270Z,2.20
2019-05-10T08:33:36.900Z,4.93
2019-05-10T08:36:07.492Z,3.30
2019-05-10T08:38:39.560Z,3.50
2019-05-10T08:41:14.836Z,2.90
2019-05-10T08:43:43.189Z,3.53
2019-05-10T08:46:13.987Z,3.67
2019-05-10T08:48:50.315Z,4.20
2019-05-10T08:51:16.839Z,4.83
2019-05-10T08:53:53.504Z,5.87
2019-05-10T08:56:21.672Z,6.90
2019-05-10T08:58:53.556Z,7.10
2019-05-10T09:01:30.133Z,9.23
2019-05-10T09:04:01.950Z,9.53
2019-05-10T09:06:29.214Z,10.40
2019-05-10T09:09:05.965Z,11.60
2019-05-10T09:11:32.795Z,11.90
2019-05-10T09:14:04.159Z,13.50
2019-05-10T09:16:43.549Z,13.50
2019-05-10T09:19:08.289Z,12.23
2019-05-10T09:21:41.021Z,13.53
2019-05-10T09:24:12.811Z,13.03
2019-05-10T09:26:46.948Z,10.87
2019-05-10T09:29:16.081Z,11.50
2019-05-10T09:31:50.699Z,8.90
2019-05-10T09:34:23.864Z,8.60
2019-05-10T09:36:53.187Z,7.57
2019-05-10T09:39:25.264Z,6.50
2019-05-10T09:41:56.034Z,7.43
2019-05-10T09:44:26.674Z,6.20
2019-05-10T09:46:58.440Z,7.60
2019-05-10T09:49:29.114Z,7.00
2019-05-10T09:52:04.466Z,7.87
2019-05-10T09:54:33.691Z,6.83
2019-05-10T09:57:08.210Z,7.60
2019-05-10T09:59:38.717Z,7.57
2019-05-10T10:02:18.128Z,7.07
2019-05-10T10:04:47.368Z,6.90
2019-05-10T10:07:19.018Z,7.33
2019-05-10T10:09:49.967Z,6.70
2019-05-10T10:12:20.554Z,6.77
2019-05-10T10:14:51.405Z,7.30
2019-05-10T10:17:22.013Z,7.00
2019-05-10T10:19:52.658Z,6.40
2019-05-10T10:22:23.526Z,6.80
2019-05-10T10:24:57.029Z,5.30
2019-05-10T10:27:34.249Z,5.40
2019-05-10T10:29:58.845Z,5.00
2019-05-10T10:32:31.354Z,4.80
2019-05-10T10:35:01.777Z,4.43
2019-05-10T10:37:32.447Z,4.50
2019-05-10T10:40:06.030Z,4.00
2019-05-10T10:42:38.070Z,4.20
2019-05-10T10:45:09.866Z,4.03
2019-05-10T10:47:40.479Z,3.70
2019-05-10T10:50:13.351Z,4.00
2019-05-10T10:52:43.659Z,3.97
2019-05-10T10:55:14.568Z,3.80
2019-05-10T10:57:45.197Z,4.23
2019-05-10T11:00:23.236Z,4.17
2019-05-10T11:02:51.946Z,3.77
2019-05-10T11:05:22.433Z,4.00
2019-05-10T11:07:53.074Z,4.23
2019-05-10T11:10:31.633Z,3.37
2019-05-10T11:13:10.664Z,3.80
2019-05-10T11:15:36.162Z,4.00
2019-05-10T11:18:06.945Z,4.07
2019-05-10T11:20:42.022Z,4.40
2019-05-10T11:23:10.720Z,4.33
2019-05-10T11:25:50.045Z,4.33
2019-05-10T11:28:13.840Z,4.40
2019-05-10T11:30:44.860Z,4.60
2019-05-10T11:33:25.992Z,3.53
2019-05-10T11:35:48.120Z,4.20
2019-05-10T11:38:21.321Z,4.00
2019-05-10T11:40:51.899Z,4.70
2019-05-10T11:43:26.814Z,3.90
2019-05-10T11:45:54.873Z,4.27
2019-05-10T11:48:28.940Z,3.93
2019-05-10T11:50:58.235Z,3.70
2019-05-10T11:53:31.474Z,4.00
2019-05-10T11:56:02.012Z,3.60
2019-05-10T11:59:03.772Z,4.10
2019-05-10T12:03:38.040Z,4.40
2019-05-10T12:06:09.697Z,4.50
2019-05-10T12:08:41.770Z,4.43
2019-05-10T12:11:27.731Z,4.00
2019-05-10T12:13:45.366Z,3.80
2019-05-10T12:21:21.843Z,3.87
2019-05-10T12:23:56.179Z,3.40
2019-05-10T12:26:03.776Z,4.40
2019-05-10T12:26:20.398Z,4.13
2019-05-10T12:26:27.160Z,3.73
2019-05-10T12:29:02.652Z,3.00
2019-05-10T12:31:31.092Z,3.20
2019-05-10T12:34:09.227Z,3.80
2019-05-10T12:36:35.617Z,2.83
2019-05-10T12:39:07.754Z,2.97
2019-05-10T12:41:44.689Z,3.50
2019-05-10T12:44:11.726Z,3.20
2019-05-10T12:46:43.283Z,2.73
2019-05-10T12:49:14.028Z,2.53
2019-05-10T12:51:44.694Z,2.90
2019-05-10T12:54:18.546Z,2.60
2019-05-10T12:56:47.629Z,3.57
2019-05-10T12:59:18.307Z,3.13
2019-05-10T13:01:49.553Z,2.60
2019-05-10T13:04:23.207Z,2.97
2019-05-10T13:06:52.480Z,2.83
2019-05-10T13:09:37.919Z,2.50
2019-05-10T13:12:03.123Z,2.90
2019-05-10T13:14:29.321Z,2.60
2019-05-10T13:17:03.850Z,2.90
2019-05-10T13:19:32.495Z,2.40
2019-05-10T13:22:07.367Z,2.33
2019-05-10T13:24:39.873Z,2.80
2019-05-10T13:27:10.460Z,2.97
2019-05-10T13:29:47.045Z,3.50
2019-05-10T13:32:14.844Z,3.57
2019-05-10T13:34:45.972Z,3.67
2019-05-10T13:37:23.069Z,3.40
2019-05-10T13:39:48.777Z,3.30
2019-05-10T13:42:19.550Z,3.63
2019-05-10T13:44:50.145Z,3.40
2019-05-10T13:47:21.573Z,3.20
2019-05-10T13:49:55.229Z,3.30
2019-05-10T13:52:29.757Z,3.00
2019-05-10T13:54:58.135Z,3.53
2019-05-10T13:57:28.736Z,3.13
2019-05-10T14:00:02.305Z,3.17
2019-05-10T14:02:34.254Z,3.53
2019-05-10T14:05:04.314Z,3.03
2019-05-10T14:07:35.070Z,3.70
2019-05-10T14:10:06.734Z,3.40
2019-05-10T14:12:37.432Z,3.80
2019-05-10T14:15:12.976Z,3.33
2019-05-10T14:17:43.045Z,2.60
2019-05-10T14:20:25.332Z,2.30
2019-05-10T14:22:48.530Z,2.20
2019-05-10T14:25:18.402Z,3.00
2019-05-10T14:27:50.517Z,2.60
2019-05-10T14:30:21.135Z,3.63
2019-05-10T14:32:51.749Z,3.80
2019-05-10T14:35:24.359Z,4.60
2019-05-10T14:37:54.703Z,5.07
2019-05-10T14:40:30.503Z,5.30
2019-05-10T14:43:02.399Z,5.40
2019-05-10T14:45:33.714Z,5.87
2019-05-10T14:48:04.271Z,4.83
2019-05-10T14:50:37.974Z,6.07
2019-05-10T14:53:08.703Z,5.50
2019-05-10T14:55:39.364Z,5.23
2019-05-10T14:58:10.017Z,4.97
2019-05-10T15:00:41.342Z,5.20
2019-05-10T15:03:11.986Z,5.23
2019-05-10T15:05:42.630Z,4.47
2019-05-10T15:08:13.242Z,4.30
2019-05-10T15:10:44.759Z,4.30
2019-05-10T15:13:19.791Z,3.93
2019-05-10T15:15:51.851Z,4.00
2019-05-10T15:18:22.430Z,3.93
2019-05-10T15:20:53.029Z,4.20
2019-05-10T15:23:24.002Z,4.03
2019-05-10T15:25:57.644Z,4.00
2019-05-10T15:28:27.022Z,3.73
2019-05-10T15:30:58.730Z,4.10
2019-05-10T15:33:29.337Z,4.20
2019-05-10T15:35:59.933Z,4.70
2019-05-10T15:38:31.030Z,5.53
2019-05-10T15:41:03.385Z,5.43
2019-05-10T15:43:34.043Z,3.90
2019-05-10T15:46:04.698Z,3.97
2019-05-10T15:48:36.468Z,3.70
2019-05-10T15:51:11.334Z,4.03
2019-05-10T15:53:40.107Z,3.50
2019-05-10T15:56:10.734Z,3.67
2019-05-10T15:58:42.606Z,3.70
2019-05-10T16:01:14.782Z,4.60
2019-05-10T16:03:46.298Z,5.13
2019-05-10T16:06:17.143Z,5.00
2019-05-10T16:08:49.505Z,3.43
2019-05-10T16:11:20.789Z,3.57
2019-05-10T16:13:54.729Z,3.43
2019-05-10T16:16:24.528Z,3.90
2019-05-10T16:18:55.295Z,3.90
2019-05-10T16:21:25.950Z,4.80
2019-05-10T16:23:58.559Z,3.93
2019-05-10T16:26:29.246Z,4.27
2019-05-10T16:29:02.129Z,4.30
2019-05-10T16:31:33.363Z,3.73
2019-05-10T16:34:05.743Z,4.80
2019-05-10T16:36:36.453Z,4.80
2019-05-10T16:39:07.746Z,5.17
2019-05-10T16:41:38.413Z,5.10
2019-05-10T16:44:12.600Z,4.97
2019-05-10T16:46:43.420Z,4.73
2019-05-10T16:49:17.355Z,5.13
2019-05-10T16:51:49.997Z,5.20
2019-05-10T16:54:25.349Z,5.37
2019-05-10T16:56:59.325Z,5.23
2019-05-10T16:59:29.647Z,4.93
2019-05-10T17:02:04.453Z,5.90
2019-05-10T17:04:37.980Z,5.87
2019-05-10T17:07:06.557Z,5.70
2019-05-10T17:09:37.159Z,6.00
2019-05-10T17:12:07.826Z,6.00
2019-05-10T17:14:38.597Z,6.40
2019-05-10T17:17:09.329Z,5.90
2019-05-10T17:19:39.950Z,6.40
2019-05-10T17:22:10.587Z,6.70
2019-05-10T17:24:41.209Z,6.67
2019-05-10T17:27:11.956Z,7.03
2019-05-10T17:29:44.566Z,7.53
2019-05-10T17:32:18.553Z,8.00
2019-05-10T17:34:49.282Z,9.00
2019-05-10T17:37:20.102Z,8.30
2019-05-10T17:39:53.611Z,9.53
2019-05-10T17:42:23.026Z,10.07
2019-05-10T17:44:55.102Z,10.50
2019-05-10T17:47:27.151Z,10.60
2019-05-10T17:49:58.574Z,11.30
2019-05-10T17:52:29.156Z,10.80
2019-05-10T17:55:00.362Z,11.73
2019-05-10T17:57:31.075Z,10.20
2019-05-10T18:00:01.905Z,10.73
2019-05-10T18:02:32.503Z,11.20
2019-05-10T18:05:06.143Z,11.60
2019-05-10T18:07:35.517Z,12.13
2019-05-10T18:10:06.815Z,11.47
2019-05-10T18:12:37.437Z,11.53
2019-05-10T18:15:10.370Z,10.97
2019-05-10T18:17:41.224Z,11.67
2019-05-10T18:20:12.829Z,12.83
2019-05-10T18:22:45.366Z,12.20
2019-05-10T18:25:20.372Z,11.97
2019-05-10T18:27:48.528Z,11.83
2019-05-10T18:30:19.640Z,12.33
2019-05-10T18:32:50.510Z,11.40
2019-05-10T18:35:22.095Z,11.00
2019-05-10T18:37:53.586Z,11.10
2019-05-10T18:40:31.824Z,11.07
2019-05-10T18:43:03.853Z,11.23
2019-05-10T18:45:30.699Z,10.97
2019-05-10T18:48:01.791Z,11.47
2019-05-10T18:50:32.625Z,11.10
2019-05-10T18:53:05.156Z,11.73
2019-05-10T18:55:35.820Z,11.43
2019-05-10T18:58:07.700Z,11.60
2019-05-10T19:00:40.221Z,12.17
2019-05-10T19:03:10.604Z,11.33
2019-05-10T19:05:41.562Z,12.37
2019-05-10T19:08:12.165Z,12.70
2019-05-10T19:10:42.783Z,12.83
2019-05-10T19:13:13.962Z,12.67
2019-05-10T19:15:46.069Z,15.17
2019-05-10T19:18:17.734Z,14.70
2019-05-10T19:20:53.384Z,14.87
2019-05-10T19:23:23.322Z,13.97
2019-05-10T19:25:54.156Z,14.33
2019-05-10T19:28:26.839Z,13.70
2019-05-10T19:30:58.849Z,13.33
2019-05-10T19:33:36.208Z,14.47
2019-05-10T19:36:02.063Z,14.17
2019-05-10T19:38:32.601Z,14.27
2019-05-10T19:41:03.341Z,14.00
2019-05-10T19:43:34.272Z,14.13
2019-05-10T19:46:04.899Z,13.90
2019-05-10T19:48:36.932Z,13.13
2019-05-10T19:51:09.632Z,12.77
2019-05-10T19:53:42.218Z,13.53
2019-05-10T19:56:12.416Z,12.73
2019-05-10T19:58:43.082Z,13.77
2019-05-10T20:01:14.290Z,12.57
2019-05-10T20:03:44.843Z,13.30
2019-05-10T20:06:15.477Z,12.43
2019-05-10T20:08:46.268Z,30.73
2019-05-10T20:11:16.925Z,13.57
2019-05-10T20:13:48.048Z,12.93
2019-05-10T20:16:20.306Z,13.20
2019-05-10T20:18:51.039Z,13.00
2019-05-10T20:21:22.963Z,12.53
2019-05-10T20:23:53.620Z,13.27
2019-05-10T20:26:24.886Z,12.47
2019-05-10T20:28:55.544Z,12.87
2019-05-10T20:31:26.200Z,13.00
2019-05-10T20:33:56.810Z,12.43
2019-05-10T20:36:29.451Z,12.57
2019-05-10T20:39:00.976Z,13.17
2019-05-10T20:41:31.826Z,13.53
2019-05-10T20:44:02.541Z,13.23
2019-05-10T20:46:33.159Z,13.57
2019-05-10T20:49:03.898Z,13.23
2019-05-10T20:51:34.511Z,12.47
2019-05-10T20:54:05.573Z,12.80
2019-05-10T20:56:36.173Z,13.33
2019-05-10T20:59:07.018Z,12.67
2019-05-10T21:01:37.671Z,12.73
2019-05-10T21:04:08.393Z,12.60
2019-05-10T21:06:39.128Z,12.53
2019-05-10T21:09:09.728Z,12.87
2019-05-10T21:11:40.373Z,13.73
2019-05-10T21:14:11.005Z,13.77
2019-05-10T21:16:42.175Z,12.83
2019-05-10T21:19:12.825Z,13.63
2019-05-10T21:21:43.867Z,12.40
2019-05-10T21:24:14.510Z,12.17
2019-05-10T21:26:46.009Z,12.50
2019-05-10T21:29:16.743Z,11.63
2019-05-10T21:31:47.487Z,10.97
2019-05-10T21:34:18.165Z,9.77
2019-05-10T21:36:48.945Z,9.97
2019-05-10T21:39:19.486Z,9.47
2019-05-10T21:41:50.736Z,9.80
2019-05-10T21:44:21.410Z,8.87
2019-05-10T21:46:53.757Z,9.23
2019-05-10T21:49:25.000Z,9.03
2019-05-10T21:51:55.605Z,9.43
2019-05-10T21:54:29.063Z,8.87
2019-05-10T21:56:59.655Z,9.57
2019-05-10T21:59:30.240Z,10.20
2019-05-10T22:02:01.396Z,9.23
2019-05-10T22:04:33.474Z,9.53
2019-05-10T22:07:04.075Z,9.73
2019-05-10T22:09:34.681Z,8.70
2019-05-10T22:12:05.970Z,8.63
2019-05-10T22:14:38.494Z,8.67
2019-05-10T22:17:11.384Z,7.63
2019-05-10T22:19:41.805Z,6.87
2019-05-10T22:22:12.902Z,6.13
2019-05-10T22:24:43.654Z,7.00
2019-05-10T22:27:14.280Z,6.90
2019-05-10T22:29:45.614Z,8.03
2019-05-10T22:32:17.807Z,6.80
2019-05-10T22:34:48.438Z,7.20
2019-05-10T22:37:19.055Z,6.60
2019-05-10T22:39:52.538Z,6.03
2019-05-10T22:42:23.299Z,5.90
2019-05-10T22:44:54.849Z,5.37
2019-05-10T22:47:25.689Z,4.60
2019-05-10T22:49:56.269Z,5.40
2019-05-10T22:52:26.862Z,4.77
2019-05-10T22:55:00.471Z,4.73
2019-05-10T22:57:30.584Z,3.83
2019-05-10T23:00:01.184Z,4.30
2019-05-10T23:02:34.022Z,4.30
2019-05-10T23:05:05.961Z,4.30
2019-05-10T23:07:36.684Z,4.53
2019-05-10T23:10:07.599Z,4.43
2019-05-10T23:12:38.421Z,5.07
2019-05-10T23:15:09.161Z,5.10
2019-05-10T23:17:39.756Z,4.67
2019-05-10T23:20:10.456Z,4.73
2019-05-10T23:22:41.384Z,5.03
2019-05-10T23:25:12.219Z,4.97
2019-05-10T23:27:42.842Z,5.10
2019-05-10T23:30:13.587Z,4.80
2019-05-10T23:32:46.522Z,4.63
2019-05-10T23:35:17.111Z,4.43
2019-05-10T23:37:47.808Z,5.10
2019-05-10T23:40:18.396Z,5.00
2019-05-10T23:42:49.071Z,4.53
2019-05-10T23:45:21.236Z,4.73
2019-05-10T23:47:51.921Z,4.57
2019-05-10T23:50:22.549Z,4.90
2019-05-10T23:52:53.265Z,5.77
2019-05-10T23:55:24.950Z,5.30
2019-05-10T23:57:55.585Z,5.70
